Terminal Aerodrome Forecast
Issued by NWS

Home | Current Version | Previous Version | Graphics & Text | Print | Product List | Glossary On
Versions: 1 2 3 4 5 6 7 8 9 10 11 12 13 14 15 16 17 18 19 20 21 22 23 24 25 26
000
FTUS43 KABR 251600 AAA
TAFMBG
TAF AMD
KMBG 251631Z 2517/2612 14008KT P6SM OVC060
      TEMPO 2519/2521 4SM -SN OVC020
     FM252100 31011KT 2SM -SN BR OVC015
     FM260300 34017G25KT 4SM -SN BLSN OVC015
     FM260600 34022G30KT P6SM OVC015=

USA.gov is the U.S. government's official web portal to all federal, state and local government web resources and services.